sensor_id;sensor_type;location;lat;lon;timestamp;P1;durP1;ratioP1;P2;durP2;ratioP2
46835;SDS011;32573;51.290;6.926;2023-08-08T00:02:22;2.30;;;1.00;;
46835;SDS011;32573;51.290;6.926;2023-08-08T00:04:50;2.55;;;1.05;;
46835;SDS011;32573;51.290;6.926;2023-08-08T00:07:19;2.58;;;1.02;;
46835;SDS011;32573;51.290;6.926;2023-08-08T00:09:47;1.92;;;1.00;;
46835;SDS011;32573;51.290;6.926;2023-08-08T00:12:16;2.15;;;1.05;;
46835;SDS011;32573;51.290;6.926;2023-08-08T00:14:46;2.55;;;1.10;;
46835;SDS011;32573;51.290;6.926;2023-08-08T00:17:14;2.63;;;1.02;;
46835;SDS011;32573;51.290;6.926;2023-08-08T00:19:43;1.85;;;0.93;;
46835;SDS011;32573;51.290;6.926;2023-08-08T00:22:11;1.92;;;1.00;;
46835;SDS011;32573;51.290;6.926;2023-08-08T00:24:40;2.10;;;1.00;;
46835;SDS011;32573;51.290;6.926;2023-08-08T00:27:08;2.38;;;1.10;;
46835;SDS011;32573;51.290;6.926;2023-08-08T00:29:37;2.63;;;1.10;;
46835;SDS011;32573;51.290;6.926;2023-08-08T00:32:07;2.50;;;1.05;;
46835;SDS011;32573;51.290;6.926;2023-08-08T00:34:36;2.72;;;1.08;;
46835;SDS011;32573;51.290;6.926;2023-08-08T00:37:05;2.03;;;1.00;;
46835;SDS011;32573;51.290;6.926;2023-08-08T00:39:34;2.20;;;1.10;;
46835;SDS011;32573;51.290;6.926;2023-08-08T00:42:03;2.88;;;1.10;;
46835;SDS011;32573;51.290;6.926;2023-08-08T00:44:32;2.72;;;1.17;;
46835;SDS011;32573;51.290;6.926;2023-08-08T00:47:00;2.85;;;1.17;;
46835;SDS011;32573;51.290;6.926;2023-08-08T00:49:30;2.58;;;1.02;;
46835;SDS011;32573;51.290;6.926;2023-08-08T00:51:59;2.60;;;1.00;;
46835;SDS011;32573;51.290;6.926;2023-08-08T00:54:28;2.92;;;1.10;;
46835;SDS011;32573;51.290;6.926;2023-08-08T00:56:56;3.22;;;1.13;;
46835;SDS011;32573;51.290;6.926;2023-08-08T00:59:25;2.45;;;1.10;;
46835;SDS011;32573;51.290;6.926;2023-08-08T01:01:55;3.88;;;1.20;;
46835;SDS011;32573;51.290;6.926;2023-08-08T01:04:25;3.00;;;1.20;;
46835;SDS011;32573;51.290;6.926;2023-08-08T01:06:58;2.40;;;1.00;;
46835;SDS011;32573;51.290;6.926;2023-08-08T01:09:34;2.90;;;1.10;;
46835;SDS011;32573;51.290;6.926;2023-08-08T01:12:07;2.75;;;1.00;;
46835;SDS011;32573;51.290;6.926;2023-08-08T01:14:38;2.63;;;1.10;;
46835;SDS011;32573;51.290;6.926;2023-08-08T01:17:08;3.20;;;1.10;;
46835;SDS011;32573;51.290;6.926;2023-08-08T01:19:38;1.92;;;0.90;;
46835;SDS011;32573;51.290;6.926;2023-08-08T01:22:09;2.70;;;1.20;;
46835;SDS011;32573;51.290;6.926;2023-08-08T01:24:51;2.42;;;1.10;;
46835;SDS011;32573;51.290;6.926;2023-08-08T01:27:22;3.30;;;1.30;;
46835;SDS011;32573;51.290;6.926;2023-08-08T01:29:52;2.80;;;1.20;;
46835;SDS011;32573;51.290;6.926;2023-08-08T01:32:21;2.78;;;1.10;;
46835;SDS011;32573;51.290;6.926;2023-08-08T01:34:49;2.47;;;1.10;;
46835;SDS011;32573;51.290;6.926;2023-08-08T01:37:19;2.97;;;1.10;;
46835;SDS011;32573;51.290;6.926;2023-08-08T01:39:54;3.10;;;1.15;;
46835;SDS011;32573;51.290;6.926;2023-08-08T01:42:25;3.63;;;1.17;;
46835;SDS011;32573;51.290;6.926;2023-08-08T01:44:55;2.20;;;1.00;;
46835;SDS011;32573;51.290;6.926;2023-08-08T01:47:24;2.22;;;1.00;;
46835;SDS011;32573;51.290;6.926;2023-08-08T01:49:53;2.45;;;0.98;;
46835;SDS011;32573;51.290;6.926;2023-08-08T01:52:23;2.88;;;1.20;;
46835;SDS011;32573;51.290;6.926;2023-08-08T01:54:53;3.13;;;1.10;;
46835;SDS011;32573;51.290;6.926;2023-08-08T01:57:22;2.85;;;1.10;;
46835;SDS011;32573;51.290;6.926;2023-08-08T01:59:50;2.92;;;1.02;;
46835;SDS011;32573;51.290;6.926;2023-08-08T02:02:19;2.25;;;1.05;;
46835;SDS011;32573;51.290;6.926;2023-08-08T02:04:47;1.92;;;1.08;;
46835;SDS011;32573;51.290;6.926;2023-08-08T02:07:16;2.38;;;1.10;;
46835;SDS011;32573;51.290;6.926;2023-08-08T02:09:44;2.33;;;1.10;;
46835;SDS011;32573;51.290;6.926;2023-08-08T02:12:14;3.10;;;1.30;;
46835;SDS011;32573;51.290;6.926;2023-08-08T02:14:43;3.88;;;1.20;;
46835;SDS011;32573;51.290;6.926;2023-08-08T02:17:11;3.78;;;1.30;;
46835;SDS011;32573;51.290;6.926;2023-08-08T02:19:40;3.15;;;1.20;;
46835;SDS011;32573;51.290;6.926;2023-08-08T02:22:09;2.72;;;1.17;;
46835;SDS011;32573;51.290;6.926;2023-08-08T02:24:37;3.50;;;1.35;;
46835;SDS011;32573;51.290;6.926;2023-08-08T02:27:06;2.47;;;1.00;;
46835;SDS011;32573;51.290;6.926;2023-08-08T02:29:36;2.33;;;1.08;;
46835;SDS011;32573;51.290;6.926;2023-08-08T02:32:05;1.83;;;1.00;;
46835;SDS011;32573;51.290;6.926;2023-08-08T02:34:34;3.33;;;1.13;;
46835;SDS011;32573;51.290;6.926;2023-08-08T02:37:03;2.72;;;1.15;;
46835;SDS011;32573;51.290;6.926;2023-08-08T02:39:32;3.25;;;1.40;;
46835;SDS011;32573;51.290;6.926;2023-08-08T02:42:01;2.58;;;1.17;;
46835;SDS011;32573;51.290;6.926;2023-08-08T02:44:30;3.20;;;1.20;;
46835;SDS011;32573;51.290;6.926;2023-08-08T02:47:00;3.38;;;1.30;;
46835;SDS011;32573;51.290;6.926;2023-08-08T02:49:31;2.35;;;1.02;;
46835;SDS011;32573;51.290;6.926;2023-08-08T02:52:00;2.30;;;1.13;;
46835;SDS011;32573;51.290;6.926;2023-08-08T02:54:32;2.05;;;1.05;;
46835;SDS011;32573;51.290;6.926;2023-08-08T02:57:01;3.28;;;1.20;;
46835;SDS011;32573;51.290;6.926;2023-08-08T02:59:29;3.35;;;1.17;;
46835;SDS011;32573;51.290;6.926;2023-08-08T03:02:01;3.05;;;1.20;;
46835;SDS011;32573;51.290;6.926;2023-08-08T03:04:32;2.85;;;1.10;;
46835;SDS011;32573;51.290;6.926;2023-08-08T03:07:03;2.70;;;1.30;;
46835;SDS011;32573;51.290;6.926;2023-08-08T03:09:34;2.55;;;1.10;;
46835;SDS011;32573;51.290;6.926;2023-08-08T03:12:03;2.17;;;1.15;;
46835;SDS011;32573;51.290;6.926;2023-08-08T03:14:33;2.33;;;1.05;;
46835;SDS011;32573;51.290;6.926;2023-08-08T03:17:04;3.20;;;1.10;;
46835;SDS011;32573;51.290;6.926;2023-08-08T03:19:33;3.08;;;1.20;;
46835;SDS011;32573;51.290;6.926;2023-08-08T03:22:03;3.45;;;1.23;;
46835;SDS011;32573;51.290;6.926;2023-08-08T03:24:35;3.00;;;1.33;;
46835;SDS011;32573;51.290;6.926;2023-08-08T03:27:04;3.35;;;1.08;;
46835;SDS011;32573;51.290;6.926;2023-08-08T03:29:33;2.65;;;1.13;;
46835;SDS011;32573;51.290;6.926;2023-08-08T03:32:02;2.65;;;1.00;;
46835;SDS011;32573;51.290;6.926;2023-08-08T03:34:33;2.60;;;1.20;;
46835;SDS011;32573;51.290;6.926;2023-08-08T03:37:03;4.80;;;1.40;;
46835;SDS011;32573;51.290;6.926;2023-08-08T03:39:32;2.78;;;1.20;;
46835;SDS011;32573;51.290;6.926;2023-08-08T03:42:00;3.28;;;1.20;;
46835;SDS011;32573;51.290;6.926;2023-08-08T03:44:29;2.72;;;1.02;;
46835;SDS011;32573;51.290;6.926;2023-08-08T03:46:58;2.75;;;1.30;;
46835;SDS011;32573;51.290;6.926;2023-08-08T03:49:46;3.00;;;1.25;;
46835;SDS011;32573;51.290;6.926;2023-08-08T03:52:15;3.97;;;1.25;;
46835;SDS011;32573;51.290;6.926;2023-08-08T03:54:44;3.35;;;1.15;;
46835;SDS011;32573;51.290;6.926;2023-08-08T03:57:12;3.10;;;1.50;;
46835;SDS011;32573;51.290;6.926;2023-08-08T03:59:41;3.35;;;1.17;;
46835;SDS011;32573;51.290;6.926;2023-08-08T04:02:09;2.17;;;1.10;;
46835;SDS011;32573;51.290;6.926;2023-08-08T04:04:38;2.90;;;1.17;;
46835;SDS011;32573;51.290;6.926;2023-08-08T04:07:08;3.53;;;1.45;;
46835;SDS011;32573;51.290;6.926;2023-08-08T04:09:36;3.13;;;1.20;;
46835;SDS011;32573;51.290;6.926;2023-08-08T04:12:05;2.92;;;1.13;;
46835;SDS011;32573;51.290;6.926;2023-08-08T04:14:34;2.83;;;1.23;;
46835;SDS011;32573;51.290;6.926;2023-08-08T04:17:03;3.53;;;1.13;;
46835;SDS011;32573;51.290;6.926;2023-08-08T04:19:31;3.25;;;1.20;;
46835;SDS011;32573;51.290;6.926;2023-08-08T04:22:00;2.53;;;1.10;;
46835;SDS011;32573;51.290;6.926;2023-08-08T04:24:30;3.60;;;1.45;;
46835;SDS011;32573;51.290;6.926;2023-08-08T04:26:58;4.13;;;1.48;;
46835;SDS011;32573;51.290;6.926;2023-08-08T04:29:27;3.55;;;1.38;;
46835;SDS011;32573;51.290;6.926;2023-08-08T04:31:55;3.13;;;1.10;;
46835;SDS011;32573;51.290;6.926;2023-08-08T04:34:24;4.40;;;1.55;;
46835;SDS011;32573;51.290;6.926;2023-08-08T04:36:53;2.80;;;1.30;;
46835;SDS011;32573;51.290;6.926;2023-08-08T04:39:21;3.00;;;1.27;;
46835;SDS011;32573;51.290;6.926;2023-08-08T04:41:51;4.03;;;1.38;;
46835;SDS011;32573;51.290;6.926;2023-08-08T04:44:20;4.53;;;1.60;;
46835;SDS011;32573;51.290;6.926;2023-08-08T04:46:48;3.13;;;1.20;;
46835;SDS011;32573;51.290;6.926;2023-08-08T04:49:17;3.63;;;1.48;;
46835;SDS011;32573;51.290;6.926;2023-08-08T04:51:45;3.25;;;1.50;;
46835;SDS011;32573;51.290;6.926;2023-08-08T04:54:14;3.85;;;1.50;;
46835;SDS011;32573;51.290;6.926;2023-08-08T04:56:42;5.20;;;1.75;;
46835;SDS011;32573;51.290;6.926;2023-08-08T04:59:12;3.28;;;1.50;;
46835;SDS011;32573;51.290;6.926;2023-08-08T05:01:41;4.13;;;1.60;;
46835;SDS011;32573;51.290;6.926;2023-08-08T05:04:09;3.03;;;1.40;;
46835;SDS011;32573;51.290;6.926;2023-08-08T05:06:38;4.05;;;1.55;;
46835;SDS011;32573;51.290;6.926;2023-08-08T05:09:06;4.22;;;1.90;;
46835;SDS011;32573;51.290;6.926;2023-08-08T05:11:36;5.10;;;2.40;;
46835;SDS011;32573;51.290;6.926;2023-08-08T05:14:04;6.38;;;2.35;;
46835;SDS011;32573;51.290;6.926;2023-08-08T05:16:34;5.72;;;1.92;;
46835;SDS011;32573;51.290;6.926;2023-08-08T05:19:03;5.00;;;1.77;;
46835;SDS011;32573;51.290;6.926;2023-08-08T05:21:31;3.50;;;1.60;;
46835;SDS011;32573;51.290;6.926;2023-08-08T05:24:01;4.32;;;1.80;;
46835;SDS011;32573;51.290;6.926;2023-08-08T05:26:29;4.40;;;2.00;;
46835;SDS011;32573;51.290;6.926;2023-08-08T05:28:58;5.97;;;2.25;;
46835;SDS011;32573;51.290;6.926;2023-08-08T05:31:26;4.53;;;2.03;;
46835;SDS011;32573;51.290;6.926;2023-08-08T05:33:56;4.60;;;1.90;;
46835;SDS011;32573;51.290;6.926;2023-08-08T05:36:25;7.00;;;2.47;;
46835;SDS011;32573;51.290;6.926;2023-08-08T05:38:53;4.50;;;1.80;;
46835;SDS011;32573;51.290;6.926;2023-08-08T05:41:22;5.43;;;2.42;;
46835;SDS011;32573;51.290;6.926;2023-08-08T05:43:50;5.05;;;2.30;;
46835;SDS011;32573;51.290;6.926;2023-08-08T05:46:19;5.55;;;2.00;;
46835;SDS011;32573;51.290;6.926;2023-08-08T05:48:47;4.15;;;2.00;;
46835;SDS011;32573;51.290;6.926;2023-08-08T05:51:17;5.95;;;2.28;;
46835;SDS011;32573;51.290;6.926;2023-08-08T05:53:46;5.78;;;2.50;;
46835;SDS011;32573;51.290;6.926;2023-08-08T05:56:14;5.20;;;2.38;;
46835;SDS011;32573;51.290;6.926;2023-08-08T05:58:43;5.97;;;2.45;;
46835;SDS011;32573;51.290;6.926;2023-08-08T06:01:11;4.07;;;2.10;;
46835;SDS011;32573;51.290;6.926;2023-08-08T06:03:40;5.50;;;2.05;;
46835;SDS011;32573;51.290;6.926;2023-08-08T06:06:09;5.72;;;2.40;;
46835;SDS011;32573;51.290;6.926;2023-08-08T06:08:39;5.88;;;2.00;;
46835;SDS011;32573;51.290;6.926;2023-08-08T06:11:07;5.43;;;2.50;;
46835;SDS011;32573;51.290;6.926;2023-08-08T06:13:36;8.38;;;3.05;;
46835;SDS011;32573;51.290;6.926;2023-08-08T06:16:06;4.13;;;2.22;;
46835;SDS011;32573;51.290;6.926;2023-08-08T06:18:35;4.65;;;2.30;;
46835;SDS011;32573;51.290;6.926;2023-08-08T06:21:03;4.85;;;2.30;;
46835;SDS011;32573;51.290;6.926;2023-08-08T06:23:34;4.43;;;2.40;;
46835;SDS011;32573;51.290;6.926;2023-08-08T06:26:04;5.15;;;2.60;;
46835;SDS011;32573;51.290;6.926;2023-08-08T06:28:33;6.45;;;3.00;;
46835;SDS011;32573;51.290;6.926;2023-08-08T06:31:02;5.72;;;2.95;;
46835;SDS011;32573;51.290;6.926;2023-08-08T06:33:30;7.03;;;2.90;;
46835;SDS011;32573;51.290;6.926;2023-08-08T06:35:59;5.65;;;2.50;;
46835;SDS011;32573;51.290;6.926;2023-08-08T06:38:27;4.95;;;2.05;;
46835;SDS011;32573;51.290;6.926;2023-08-08T06:40:56;5.75;;;2.70;;
46835;SDS011;32573;51.290;6.926;2023-08-08T06:43:25;4.90;;;2.40;;
46835;SDS011;32573;51.290;6.926;2023-08-08T06:45:54;5.32;;;2.30;;
46835;SDS011;32573;51.290;6.926;2023-08-08T06:48:23;5.20;;;2.40;;
46835;SDS011;32573;51.290;6.926;2023-08-08T06:50:52;5.47;;;2.50;;
46835;SDS011;32573;51.290;6.926;2023-08-08T06:53:21;4.68;;;2.22;;
46835;SDS011;32573;51.290;6.926;2023-08-08T06:55:50;5.82;;;2.50;;
46835;SDS011;32573;51.290;6.926;2023-08-08T06:58:19;6.07;;;2.83;;
46835;SDS011;32573;51.290;6.926;2023-08-08T07:00:49;8.85;;;3.03;;
46835;SDS011;32573;51.290;6.926;2023-08-08T07:03:18;5.82;;;2.42;;
46835;SDS011;32573;51.290;6.926;2023-08-08T07:05:47;5.78;;;2.60;;
46835;SDS011;32573;51.290;6.926;2023-08-08T07:08:18;5.38;;;2.70;;
46835;SDS011;32573;51.290;6.926;2023-08-08T07:10:47;4.90;;;2.80;;
46835;SDS011;32573;51.290;6.926;2023-08-08T07:13:15;5.53;;;2.60;;
46835;SDS011;32573;51.290;6.926;2023-08-08T07:15:44;4.80;;;2.60;;
46835;SDS011;32573;51.290;6.926;2023-08-08T07:18:14;6.50;;;2.53;;
46835;SDS011;32573;51.290;6.926;2023-08-08T07:20:42;5.88;;;2.40;;
46835;SDS011;32573;51.290;6.926;2023-08-08T07:23:11;4.43;;;2.47;;
46835;SDS011;32573;51.290;6.926;2023-08-08T07:25:39;4.38;;;2.20;;
46835;SDS011;32573;51.290;6.926;2023-08-08T07:28:07;5.00;;;2.08;;
46835;SDS011;32573;51.290;6.926;2023-08-08T07:30:36;4.63;;;2.42;;
46835;SDS011;32573;51.290;6.926;2023-08-08T07:33:04;5.32;;;2.63;;
46835;SDS011;32573;51.290;6.926;2023-08-08T07:35:34;4.60;;;2.38;;
46835;SDS011;32573;51.290;6.926;2023-08-08T07:38:03;7.07;;;2.72;;
46835;SDS011;32573;51.290;6.926;2023-08-08T07:40:32;4.70;;;2.30;;
46835;SDS011;32573;51.290;6.926;2023-08-08T07:43:00;4.00;;;2.10;;
46835;SDS011;32573;51.290;6.926;2023-08-08T07:45:29;5.05;;;2.42;;
46835;SDS011;32573;51.290;6.926;2023-08-08T07:47:57;4.25;;;2.35;;
46835;SDS011;32573;51.290;6.926;2023-08-08T07:50:26;4.45;;;2.30;;
46835;SDS011;32573;51.290;6.926;2023-08-08T07:52:55;4.03;;;2.03;;
46835;SDS011;32573;51.290;6.926;2023-08-08T07:55:24;4.40;;;2.25;;
46835;SDS011;32573;51.290;6.926;2023-08-08T07:57:52;4.35;;;2.30;;
46835;SDS011;32573;51.290;6.926;2023-08-08T08:00:20;5.63;;;2.38;;
46835;SDS011;32573;51.290;6.926;2023-08-08T08:02:49;3.95;;;2.10;;
46835;SDS011;32573;51.290;6.926;2023-08-08T08:05:18;4.30;;;2.30;;
46835;SDS011;32573;51.290;6.926;2023-08-08T08:07:47;6.13;;;2.25;;
46835;SDS011;32573;51.290;6.926;2023-08-08T08:10:17;3.70;;;2.03;;
46835;SDS011;32573;51.290;6.926;2023-08-08T08:12:45;4.30;;;2.10;;
46835;SDS011;32573;51.290;6.926;2023-08-08T08:15:14;6.10;;;1.98;;
46835;SDS011;32573;51.290;6.926;2023-08-08T08:17:42;6.10;;;2.30;;
46835;SDS011;32573;51.290;6.926;2023-08-08T08:20:10;3.50;;;1.83;;
46835;SDS011;32573;51.290;6.926;2023-08-08T08:22:39;4.50;;;1.90;;
46835;SDS011;32573;51.290;6.926;2023-08-08T08:25:08;4.40;;;1.88;;
46835;SDS011;32573;51.290;6.926;2023-08-08T08:27:38;6.88;;;2.72;;
46835;SDS011;32573;51.290;6.926;2023-08-08T08:30:06;3.85;;;2.00;;
46835;SDS011;32573;51.290;6.926;2023-08-08T08:32:36;4.68;;;1.90;;
46835;SDS011;32573;51.290;6.926;2023-08-08T08:35:05;5.03;;;1.95;;
46835;SDS011;32573;51.290;6.926;2023-08-08T08:37:35;3.88;;;1.98;;
46835;SDS011;32573;51.290;6.926;2023-08-08T08:40:04;5.30;;;2.17;;
46835;SDS011;32573;51.290;6.926;2023-08-08T08:42:33;3.90;;;1.77;;
46835;SDS011;32573;51.290;6.926;2023-08-08T08:45:04;3.35;;;1.80;;
46835;SDS011;32573;51.290;6.926;2023-08-08T08:47:34;5.30;;;2.00;;
46835;SDS011;32573;51.290;6.926;2023-08-08T08:50:05;4.85;;;1.95;;
46835;SDS011;32573;51.290;6.926;2023-08-08T08:52:34;3.85;;;1.90;;
46835;SDS011;32573;51.290;6.926;2023-08-08T08:55:03;5.18;;;1.85;;
46835;SDS011;32573;51.290;6.926;2023-08-08T08:57:33;3.83;;;1.70;;
46835;SDS011;32573;51.290;6.926;2023-08-08T09:00:06;7.30;;;2.40;;
46835;SDS011;32573;51.290;6.926;2023-08-08T09:02:36;4.68;;;2.03;;
46835;SDS011;32573;51.290;6.926;2023-08-08T09:05:05;3.45;;;1.80;;
46835;SDS011;32573;51.290;6.926;2023-08-08T09:07:34;4.97;;;1.92;;
46835;SDS011;32573;51.290;6.926;2023-08-08T09:10:04;4.43;;;2.10;;
46835;SDS011;32573;51.290;6.926;2023-08-08T09:12:33;7.82;;;2.35;;
46835;SDS011;32573;51.290;6.926;2023-08-08T09:15:04;5.13;;;2.08;;
46835;SDS011;32573;51.290;6.926;2023-08-08T09:17:35;4.93;;;2.08;;
46835;SDS011;32573;51.290;6.926;2023-08-08T09:20:16;3.58;;;1.80;;
46835;SDS011;32573;51.290;6.926;2023-08-08T09:22:45;4.03;;;2.17;;
46835;SDS011;32573;51.290;6.926;2023-08-08T09:25:15;4.35;;;2.03;;
46835;SDS011;32573;51.290;6.926;2023-08-08T09:27:43;4.35;;;2.22;;
46835;SDS011;32573;51.290;6.926;2023-08-08T09:30:13;3.65;;;1.92;;
46835;SDS011;32573;51.290;6.926;2023-08-08T09:32:43;4.10;;;1.88;;
46835;SDS011;32573;51.290;6.926;2023-08-08T09:35:11;4.22;;;2.03;;
46835;SDS011;32573;51.290;6.926;2023-08-08T09:37:40;5.45;;;1.90;;
46835;SDS011;32573;51.290;6.926;2023-08-08T09:40:09;3.80;;;1.98;;
46835;SDS011;32573;51.290;6.926;2023-08-08T09:42:39;3.78;;;2.10;;
46835;SDS011;32573;51.290;6.926;2023-08-08T09:45:09;4.85;;;2.20;;
46835;SDS011;32573;51.290;6.926;2023-08-08T09:47:39;3.72;;;2.10;;
46835;SDS011;32573;51.290;6.926;2023-08-08T09:50:08;4.75;;;1.77;;
46835;SDS011;32573;51.290;6.926;2023-08-08T09:52:37;5.50;;;2.38;;
46835;SDS011;32573;51.290;6.926;2023-08-08T09:55:06;3.83;;;1.88;;
46835;SDS011;32573;51.290;6.926;2023-08-08T09:57:35;4.35;;;2.28;;
46835;SDS011;32573;51.290;6.926;2023-08-08T10:00:07;4.78;;;2.00;;
46835;SDS011;32573;51.290;6.926;2023-08-08T10:02:44;5.90;;;2.45;;
46835;SDS011;32573;51.290;6.926;2023-08-08T10:05:14;4.50;;;1.90;;
46835;SDS011;32573;51.290;6.926;2023-08-08T10:07:43;5.88;;;1.83;;
46835;SDS011;32573;51.290;6.926;2023-08-08T10:10:12;4.30;;;1.80;;
46835;SDS011;32573;51.290;6.926;2023-08-08T10:12:41;4.82;;;1.85;;
46835;SDS011;32573;51.290;6.926;2023-08-08T10:15:10;4.28;;;1.90;;
46835;SDS011;32573;51.290;6.926;2023-08-08T10:17:41;4.25;;;1.58;;
46835;SDS011;32573;51.290;6.926;2023-08-08T10:20:12;3.67;;;1.70;;
46835;SDS011;32573;51.290;6.926;2023-08-08T10:22:45;4.90;;;1.90;;
46835;SDS011;32573;51.290;6.926;2023-08-08T10:25:17;4.35;;;1.98;;
46835;SDS011;32573;51.290;6.926;2023-08-08T10:27:47;4.28;;;2.10;;
46835;SDS011;32573;51.290;6.926;2023-08-08T10:30:16;3.30;;;1.60;;
46835;SDS011;32573;51.290;6.926;2023-08-08T10:32:45;4.15;;;1.60;;
46835;SDS011;32573;51.290;6.926;2023-08-08T10:35:15;4.00;;;1.63;;
46835;SDS011;32573;51.290;6.926;2023-08-08T10:37:51;3.95;;;1.92;;
46835;SDS011;32573;51.290;6.926;2023-08-08T10:40:21;3.03;;;1.50;;
46835;SDS011;32573;51.290;6.926;2023-08-08T10:42:49;4.05;;;1.58;;
46835;SDS011;32573;51.290;6.926;2023-08-08T10:45:20;3.90;;;1.70;;
46835;SDS011;32573;51.290;6.926;2023-08-08T10:47:48;4.40;;;1.70;;
46835;SDS011;32573;51.290;6.926;2023-08-08T10:50:21;3.83;;;1.80;;
46835;SDS011;32573;51.290;6.926;2023-08-08T10:52:52;4.63;;;1.50;;
46835;SDS011;32573;51.290;6.926;2023-08-08T10:55:22;3.28;;;1.50;;
46835;SDS011;32573;51.290;6.926;2023-08-08T10:57:53;3.67;;;1.40;;
46835;SDS011;32573;51.290;6.926;2023-08-08T11:00:24;4.78;;;1.70;;
46835;SDS011;32573;51.290;6.926;2023-08-08T11:02:56;3.45;;;1.50;;
46835;SDS011;32573;51.290;6.926;2023-08-08T11:05:28;4.15;;;2.08;;
46835;SDS011;32573;51.290;6.926;2023-08-08T11:07:58;3.97;;;1.60;;
46835;SDS011;32573;51.290;6.926;2023-08-08T11:10:28;5.07;;;1.80;;
46835;SDS011;32573;51.290;6.926;2023-08-08T11:12:58;4.55;;;2.22;;
46835;SDS011;32573;51.290;6.926;2023-08-08T11:15:28;4.47;;;1.95;;
46835;SDS011;32573;51.290;6.926;2023-08-08T11:17:58;4.32;;;1.92;;
46835;SDS011;32573;51.290;6.926;2023-08-08T11:20:30;3.97;;;1.77;;
46835;SDS011;32573;51.290;6.926;2023-08-08T11:22:59;5.35;;;1.85;;
46835;SDS011;32573;51.290;6.926;2023-08-08T11:25:29;4.93;;;2.08;;
46835;SDS011;32573;51.290;6.926;2023-08-08T11:27:58;5.03;;;2.20;;
46835;SDS011;32573;51.290;6.926;2023-08-08T11:30:27;3.90;;;1.80;;
46835;SDS011;32573;51.290;6.926;2023-08-08T11:32:57;4.03;;;1.80;;
46835;SDS011;32573;51.290;6.926;2023-08-08T11:35:31;5.72;;;1.70;;
46835;SDS011;32573;51.290;6.926;2023-08-08T11:38:00;4.70;;;1.92;;
46835;SDS011;32573;51.290;6.926;2023-08-08T11:40:31;5.13;;;2.20;;
46835;SDS011;32573;51.290;6.926;2023-08-08T11:43:00;3.72;;;1.83;;
46835;SDS011;32573;51.290;6.926;2023-08-08T11:45:29;4.78;;;1.80;;
46835;SDS011;32573;51.290;6.926;2023-08-08T11:47:57;4.07;;;1.80;;
46835;SDS011;32573;51.290;6.926;2023-08-08T11:50:26;3.88;;;1.60;;
46835;SDS011;32573;51.290;6.926;2023-08-08T11:52:56;4.32;;;1.85;;
46835;SDS011;32573;51.290;6.926;2023-08-08T11:55:28;4.22;;;1.83;;
46835;SDS011;32573;51.290;6.926;2023-08-08T11:57:57;3.05;;;1.77;;
46835;SDS011;32573;51.290;6.926;2023-08-08T12:00:27;5.70;;;2.05;;
46835;SDS011;32573;51.290;6.926;2023-08-08T12:02:58;3.58;;;1.80;;
46835;SDS011;32573;51.290;6.926;2023-08-08T12:05:35;3.20;;;1.60;;
46835;SDS011;32573;51.290;6.926;2023-08-08T12:08:06;7.17;;;2.07;;
46835;SDS011;32573;51.290;6.926;2023-08-08T12:10:35;5.00;;;2.15;;
46835;SDS011;32573;51.290;6.926;2023-08-08T12:13:04;4.03;;;1.80;;
46835;SDS011;32573;51.290;6.926;2023-08-08T12:15:35;4.57;;;2.00;;
46835;SDS011;32573;51.290;6.926;2023-08-08T12:18:04;3.50;;;1.80;;
46835;SDS011;32573;51.290;6.926;2023-08-08T12:20:32;4.00;;;1.70;;
46835;SDS011;32573;51.290;6.926;2023-08-08T12:23:01;3.55;;;1.65;;
46835;SDS011;32573;51.290;6.926;2023-08-08T12:25:31;3.47;;;1.73;;
46835;SDS011;32573;51.290;6.926;2023-08-08T12:28:01;3.92;;;1.60;;
46835;SDS011;32573;51.290;6.926;2023-08-08T12:30:29;3.33;;;1.45;;
46835;SDS011;32573;51.290;6.926;2023-08-08T12:32:58;3.22;;;1.63;;
46835;SDS011;32573;51.290;6.926;2023-08-08T12:35:26;4.18;;;1.90;;
46835;SDS011;32573;51.290;6.926;2023-08-08T12:37:55;3.92;;;1.70;;
46835;SDS011;32573;51.290;6.926;2023-08-08T12:40:23;4.95;;;1.60;;
46835;SDS011;32573;51.290;6.926;2023-08-08T12:42:53;3.75;;;1.58;;
46835;SDS011;32573;51.290;6.926;2023-08-08T12:45:22;3.75;;;1.65;;
46835;SDS011;32573;51.290;6.926;2023-08-08T12:47:50;2.97;;;1.60;;
46835;SDS011;32573;51.290;6.926;2023-08-08T12:50:19;3.45;;;1.45;;
46835;SDS011;32573;51.290;6.926;2023-08-08T12:52:47;3.20;;;1.60;;
46835;SDS011;32573;51.290;6.926;2023-08-08T12:55:16;4.13;;;1.58;;
46835;SDS011;32573;51.290;6.926;2023-08-08T12:57:45;4.47;;;1.50;;
46835;SDS011;32573;51.290;6.926;2023-08-08T13:00:15;3.70;;;1.50;;
46835;SDS011;32573;51.290;6.926;2023-08-08T13:02:44;5.28;;;1.73;;
46835;SDS011;32573;51.290;6.926;2023-08-08T13:05:13;3.92;;;1.80;;
46835;SDS011;32573;51.290;6.926;2023-08-08T13:07:41;3.38;;;1.60;;
46835;SDS011;32573;51.290;6.926;2023-08-08T13:10:10;3.22;;;1.50;;
46835;SDS011;32573;51.290;6.926;2023-08-08T13:12:38;4.13;;;1.60;;
46835;SDS011;32573;51.290;6.926;2023-08-08T13:15:07;2.92;;;1.60;;
46835;SDS011;32573;51.290;6.926;2023-08-08T13:17:37;3.20;;;1.63;;
46835;SDS011;32573;51.290;6.926;2023-08-08T13:20:06;3.75;;;1.63;;
46835;SDS011;32573;51.290;6.926;2023-08-08T13:22:35;3.47;;;1.50;;
46835;SDS011;32573;51.290;6.926;2023-08-08T13:25:04;3.92;;;1.52;;
46835;SDS011;32573;51.290;6.926;2023-08-08T13:27:33;3.00;;;1.45;;
46835;SDS011;32573;51.290;6.926;2023-08-08T13:30:02;4.32;;;1.33;;
46835;SDS011;32573;51.290;6.926;2023-08-08T13:32:30;5.03;;;1.70;;
46835;SDS011;32573;51.290;6.926;2023-08-08T13:35:00;3.40;;;1.63;;
46835;SDS011;32573;51.290;6.926;2023-08-08T13:37:29;4.25;;;1.70;;
46835;SDS011;32573;51.290;6.926;2023-08-08T13:39:57;4.53;;;1.73;;
46835;SDS011;32573;51.290;6.926;2023-08-08T13:42:25;5.15;;;1.70;;
46835;SDS011;32573;51.290;6.926;2023-08-08T13:44:54;4.80;;;1.60;;
46835;SDS011;32573;51.290;6.926;2023-08-08T13:47:22;3.85;;;1.60;;
46835;SDS011;32573;51.290;6.926;2023-08-08T13:49:51;5.00;;;1.70;;
46835;SDS011;32573;51.290;6.926;2023-08-08T13:52:21;3.22;;;1.45;;
46835;SDS011;32573;51.290;6.926;2023-08-08T13:54:50;4.18;;;1.80;;
46835;SDS011;32573;51.290;6.926;2023-08-08T13:57:18;3.97;;;1.67;;
46835;SDS011;32573;51.290;6.926;2023-08-08T13:59:46;3.33;;;1.33;;
46835;SDS011;32573;51.290;6.926;2023-08-08T14:02:15;4.25;;;1.80;;
46835;SDS011;32573;51.290;6.926;2023-08-08T14:04:45;3.85;;;1.67;;
46835;SDS011;32573;51.290;6.926;2023-08-08T14:07:13;4.25;;;1.70;;
46835;SDS011;32573;51.290;6.926;2023-08-08T14:09:43;3.60;;;1.63;;
46835;SDS011;32573;51.290;6.926;2023-08-08T14:12:12;3.15;;;1.52;;
46835;SDS011;32573;51.290;6.926;2023-08-08T14:14:40;4.80;;;1.50;;
46835;SDS011;32573;51.290;6.926;2023-08-08T14:17:09;3.30;;;1.50;;
46835;SDS011;32573;51.290;6.926;2023-08-08T14:19:37;4.40;;;1.60;;
46835;SDS011;32573;51.290;6.926;2023-08-08T14:22:05;3.22;;;1.63;;
46835;SDS011;32573;51.290;6.926;2023-08-08T14:24:34;5.28;;;1.60;;
46835;SDS011;32573;51.290;6.926;2023-08-08T14:27:04;3.85;;;1.60;;
46835;SDS011;32573;51.290;6.926;2023-08-08T14:29:33;4.00;;;1.60;;
46835;SDS011;32573;51.290;6.926;2023-08-08T14:32:01;4.13;;;1.45;;
46835;SDS011;32573;51.290;6.926;2023-08-08T14:34:29;4.68;;;1.70;;
46835;SDS011;32573;51.290;6.926;2023-08-08T14:36:59;3.83;;;1.50;;
46835;SDS011;32573;51.290;6.926;2023-08-08T14:39:28;3.83;;;1.60;;
46835;SDS011;32573;51.290;6.926;2023-08-08T14:41:57;3.47;;;1.80;;
46835;SDS011;32573;51.290;6.926;2023-08-08T14:44:27;3.80;;;1.45;;
46835;SDS011;32573;51.290;6.926;2023-08-08T14:46:56;3.85;;;1.63;;
46835;SDS011;32573;51.290;6.926;2023-08-08T14:49:25;3.97;;;1.40;;
46835;SDS011;32573;51.290;6.926;2023-08-08T14:51:54;3.13;;;1.55;;
46835;SDS011;32573;51.290;6.926;2023-08-08T14:54:22;3.50;;;1.50;;
46835;SDS011;32573;51.290;6.926;2023-08-08T14:56:51;4.63;;;1.70;;
46835;SDS011;32573;51.290;6.926;2023-08-08T14:59:19;3.25;;;1.40;;
46835;SDS011;32573;51.290;6.926;2023-08-08T15:01:49;3.55;;;1.38;;